Time;durP1;ratioP1;P1;durP2;ratioP2;P2;SDS_P1;SDS_P2;PMS_P1;PMS_P2;Temp;Humidity;BMP_temperature;BMP_pressure;BME280_temperature;BME280_humidity;BME280_pressure;Samples;Min_cycle;Max_cycle;Signal;HPM_P1;HPM_P2
2021/12/22 00:01:04;;;;;;;11.90;7.40;;;;;;;;;;105574;1291;64738;-27
2021/12/22 00:03:32;;;;;;;11.70;6.40;;;;;;;;;;105572;1293;64799;-25
2021/12/22 00:05:59;;;;;;;11.00;7.10;;;;;;;;;;105563;1297;63525;-26
2021/12/22 00:08:27;;;;;;;10.30;6.70;;;;;;;;;;105577;1293;64803;-25
2021/12/22 00:10:53;;;;;;;11.30;6.50;;;;;;;;;;105501;1293;64974;-26
2021/12/22 00:13:20;;;;;;;11.30;6.50;;;;;;;;;;107123;1298;62649;-25
2021/12/22 00:15:47;;;;;;;9.60;6.30;;;;;;;;;;105635;1291;64770;-26
2021/12/22 00:18:14;;;;;;;9.70;6.50;;;;;;;;;;105554;1295;64953;-26
2021/12/22 00:20:41;;;;;;;10.70;6.40;;;;;;;;;;105662;1292;64783;-26
2021/12/22 00:23:08;;;;;;;10.20;6.30;;;;;;;;;;105406;1293;64826;-30
2021/12/22 00:25:35;;;;;;;10.90;6.10;;;;;;;;;;105617;1293;64786;-26
2021/12/22 00:28:02;;;;;;;11.20;6.80;;;;;;;;;;105531;1289;64711;-26
2021/12/22 00:30:29;;;;;;;11.40;6.40;;;;;;;;;;107372;1296;62538;-23
2021/12/22 00:33:03;;;;;;;9.90;6.20;;;;;;;;;;107189;1293;62635;-24
2021/12/22 00:35:37;;;;;;;;;;;;;;;;;;105572;1294;64816;-25
2021/12/22 00:38:09;;;;;;;10.20;6.50;;;;;;;;;;105524;1293;64861;-25
2021/12/22 00:40:36;;;;;;;10.00;6.10;;;;;;;;;;105530;1292;64944;-25
2021/12/22 00:43:03;;;;;;;9.40;6.30;;;;;;;;;;105540;1293;64959;-25
2021/12/22 00:45:32;;;;;;;10.60;5.90;;;;;;;;;;105399;1293;64894;-24
2021/12/22 00:48:00;;;;;;;9.60;6.10;;;;;;;;;;105585;1292;65485;-24
2021/12/22 00:50:27;;;;;;;9.50;6.20;;;;;;;;;;105453;1293;64702;-24
2021/12/22 00:52:54;;;;;;;10.00;6.20;;;;;;;;;;105576;1293;64798;-24
2021/12/22 00:55:21;;;;;;;10.20;6.80;;;;;;;;;;105586;1294;64820;-24
2021/12/22 00:57:49;;;;;;;9.60;6.10;;;;;;;;;;105569;1291;64848;-25
2021/12/22 01:00:17;;;;;;;10.10;6.20;;;;;;;;;;105593;1293;64884;-25
2021/12/22 01:02:44;;;;;;;9.60;6.10;;;;;;;;;;105574;1293;64860;-26
2021/12/22 01:05:12;;;;;;;10.60;6.30;;;;;;;;;;105592;1293;64770;-25
2021/12/22 01:07:39;;;;;;;9.50;6.10;;;;;;;;;;105529;1293;64879;-25
2021/12/22 01:10:07;;;;;;;10.20;6.30;;;;;;;;;;105554;1295;64872;-25
2021/12/22 01:12:34;;;;;;;8.80;5.90;;;;;;;;;;105848;1295;64918;-26
2021/12/22 01:15:02;;;;;;;9.30;5.40;;;;;;;;;;105628;1294;64803;-26
2021/12/22 01:17:36;;;;;;;8.70;5.70;;;;;;;;;;105589;1291;64873;-26
2021/12/22 01:20:14;;;;;;;8.90;5.60;;;;;;;;;;105382;1294;290556;-25
2021/12/22 01:25:12;;;;;;;8.70;5.40;;;;;;;;;;105492;1293;64830;-25
2021/12/22 01:27:42;;;;;;;10.40;6.30;;;;;;;;;;106958;1293;64982;-25
2021/12/22 01:30:19;;;;;;;10.00;5.90;;;;;;;;;;105516;1293;65928;-25
2021/12/22 01:32:47;;;;;;;8.50;6.00;;;;;;;;;;105615;1294;64797;-25
2021/12/22 01:35:16;;;;;;;9.30;6.00;;;;;;;;;;105574;1293;64773;-24
2021/12/22 01:37:44;;;;;;;8.50;5.40;;;;;;;;;;105543;1293;64893;-24
2021/12/22 01:40:12;;;;;;;9.40;6.10;;;;;;;;;;105574;1292;64848;-26
2021/12/22 01:42:39;;;;;;;9.40;5.90;;;;;;;;;;105550;1293;64828;-26
2021/12/22 01:50:29;;;;;;;9.40;5.70;;;;;;;;;;105592;1293;64856;-25
2021/12/22 01:52:57;;;;;;;9.90;5.90;;;;;;;;;;105609;1293;64798;-24
2021/12/22 01:55:34;;;;;;;8.80;5.60;;;;;;;;;;105579;1292;64774;-25
2021/12/22 01:58:02;;;;;;;8.40;5.60;;;;;;;;;;105570;1293;64831;-25
2021/12/22 02:00:29;;;;;;;9.40;5.50;;;;;;;;;;105571;1293;64773;-25
2021/12/22 02:02:56;;;;;;;8.80;5.80;;;;;;;;;;105560;1295;64772;-24
2021/12/22 02:05:23;;;;;;;7.70;5.60;;;;;;;;;;105459;1282;64709;-26
2021/12/22 02:07:55;;;;;;;8.80;5.80;;;;;;;;;;105547;1291;64857;-25
2021/12/22 02:10:36;;;;;;;7.90;5.40;;;;;;;;;;107277;1295;64959;-25
2021/12/22 02:13:03;;;;;;;7.40;5.40;;;;;;;;;;105546;1293;65519;-26
2021/12/22 02:15:34;;;;;;;7.80;5.40;;;;;;;;;;106039;1293;64699;-25
2021/12/22 02:18:03;;;;;;;8.10;5.10;;;;;;;;;;107067;1297;62968;-25
2021/12/22 02:20:30;;;;;;;8.10;5.20;;;;;;;;;;107689;1295;62819;-25
2021/12/22 02:22:58;;;;;;;8.30;5.00;;;;;;;;;;106286;1297;64787;-26
2021/12/22 02:25:34;;;;;;;8.00;5.20;;;;;;;;;;105554;1295;65336;-26
2021/12/22 02:28:04;;;;;;;7.30;4.90;;;;;;;;;;105613;1291;64881;-26
2021/12/22 02:30:32;;;;;;;8.40;5.40;;;;;;;;;;105623;1294;64846;-25
2021/12/22 02:33:19;;;;;;;8.30;5.30;;;;;;;;;;105588;1295;64732;-25
2021/12/22 02:36:05;;;;;;;7.40;5.40;;;;;;;;;;105369;1293;64884;-26
2021/12/22 02:38:34;;;;;;;7.90;5.40;;;;;;;;;;105584;1293;64879;-26
2021/12/22 02:41:01;;;;;;;7.70;5.10;;;;;;;;;;105604;1295;65006;-26
2021/12/22 02:43:32;;;;;;;7.90;5.10;;;;;;;;;;105545;1295;64852;-26
2021/12/22 02:46:00;;;;;;;8.30;5.20;;;;;;;;;;105424;1294;64874;-26
2021/12/22 02:48:27;;;;;;;7.20;5.00;;;;;;;;;;105564;1294;64764;-26
2021/12/22 02:50:56;;;;;;;7.40;5.80;;;;;;;;;;105564;1293;64937;-26
2021/12/22 02:53:29;;;;;;;7.80;5.20;;;;;;;;;;105436;1293;65140;-26
2021/12/22 02:56:12;;;;;;;7.70;5.20;;;;;;;;;;105579;1295;64712;-25
2021/12/22 03:01:23;;;;;;;7.30;5.00;;;;;;;;;;105545;1295;63998;-37
2021/12/22 03:03:59;;;;;;;7.90;5.60;;;;;;;;;;105421;1296;64845;-25
2021/12/22 03:06:33;;;;;;;7.00;4.80;;;;;;;;;;105453;1295;64747;-26
2021/12/22 03:09:13;;;;;;;7.80;5.40;;;;;;;;;;105405;1297;64955;-25
2021/12/22 03:11:40;;;;;;;7.80;5.00;;;;;;;;;;105658;1295;64775;-25
2021/12/22 03:14:07;;;;;;;7.90;4.80;;;;;;;;;;105580;1294;64732;-25
2021/12/22 03:16:34;;;;;;;7.70;5.00;;;;;;;;;;105580;1293;64841;-26
2021/12/22 03:19:02;;;;;;;6.90;5.10;;;;;;;;;;105550;1293;64776;-25
2021/12/22 03:21:29;;;;;;;7.60;4.80;;;;;;;;;;105401;1297;64921;-26
2021/12/22 03:23:57;;;;;;;6.90;4.80;;;;;;;;;;107175;1291;62719;-26
2021/12/22 03:26:25;;;;;;;7.80;5.10;;;;;;;;;;106139;1280;64745;-25
2021/12/22 03:28:52;;;;;;;8.70;5.30;;;;;;;;;;105594;1296;64958;-25
2021/12/22 03:31:19;;;;;;;7.00;4.80;;;;;;;;;;105626;1295;63545;-26
2021/12/22 03:33:45;;;;;;;8.40;5.50;;;;;;;;;;105589;1296;64854;-26
2021/12/22 03:36:13;;;;;;;7.90;5.20;;;;;;;;;;105610;1293;64761;-25
2021/12/22 03:38:39;;;;;;;8.40;5.30;;;;;;;;;;105558;1294;64740;-25
2021/12/22 03:41:08;;;;;;;7.40;5.00;;;;;;;;;;105456;1297;64853;-25
2021/12/22 03:43:35;;;;;;;7.50;5.10;;;;;;;;;;105585;1295;64887;-25
2021/12/22 03:46:03;;;;;;;7.60;5.20;;;;;;;;;;105680;1294;64743;-25
2021/12/22 03:48:30;;;;;;;7.60;5.40;;;;;;;;;;105539;1291;64809;-25
2021/12/22 03:50:58;;;;;;;7.40;5.20;;;;;;;;;;105594;1295;64868;-25
2021/12/22 03:53:25;;;;;;;7.70;4.90;;;;;;;;;;105602;1294;64814;-29
2021/12/22 03:55:53;;;;;;;7.50;5.20;;;;;;;;;;105637;1294;64797;-25
2021/12/22 03:58:20;;;;;;;8.50;5.50;;;;;;;;;;105584;1294;64814;-25
2021/12/22 04:00:50;;;;;;;7.10;5.20;;;;;;;;;;105657;1293;64760;-24
2021/12/22 04:03:20;;;;;;;7.50;5.40;;;;;;;;;;105584;1292;64845;-25
2021/12/22 04:05:47;;;;;;;8.20;5.30;;;;;;;;;;105636;1288;65016;-24
2021/12/22 04:08:17;;;;;;;7.40;5.20;;;;;;;;;;105567;1295;64927;-24
2021/12/22 04:10:46;;;;;;;7.70;5.10;;;;;;;;;;105570;1294;64772;-25
2021/12/22 04:13:13;;;;;;;7.90;5.00;;;;;;;;;;105578;1295;64872;-25
2021/12/22 04:15:41;;;;;;;7.60;4.90;;;;;;;;;;105613;1294;64849;-25
2021/12/22 04:18:08;;;;;;;9.00;5.30;;;;;;;;;;105597;1295;64843;-25
2021/12/22 04:20:35;;;;;;;7.00;4.50;;;;;;;;;;105454;1297;64859;-26
2021/12/22 04:23:02;;;;;;;8.20;4.90;;;;;;;;;;105555;1296;64818;-26
2021/12/22 04:25:30;;;;;;;7.80;5.20;;;;;;;;;;105454;1293;64862;-25
2021/12/22 04:28:04;;;;;;;8.20;5.10;;;;;;;;;;107498;1293;66018;-25
2021/12/22 04:30:32;;;;;;;7.70;5.20;;;;;;;;;;105626;1295;64829;-24
2021/12/22 04:33:00;;;;;;;7.30;5.10;;;;;;;;;;105560;1295;64876;-24
2021/12/22 04:35:27;;;;;;;7.10;4.80;;;;;;;;;;105609;1293;64747;-24
2021/12/22 04:37:54;;;;;;;7.70;5.10;;;;;;;;;;105565;1295;64718;-24
2021/12/22 04:40:21;;;;;;;7.70;4.40;;;;;;;;;;105635;1292;64924;-24
2021/12/22 04:42:48;;;;;;;7.40;5.10;;;;;;;;;;105611;1285;64873;-24
2021/12/22 04:45:15;;;;;;;7.70;4.60;;;;;;;;;;105621;1293;64726;-25
2021/12/22 04:47:43;;;;;;;6.90;5.00;;;;;;;;;;106599;1296;63862;-26
2021/12/22 04:50:15;;;;;;;6.40;4.70;;;;;;;;;;107512;1293;62673;-25
2021/12/22 04:52:53;;;;;;;6.80;4.40;;;;;;;;;;105669;1291;66764;-25
2021/12/22 04:55:20;;;;;;;7.00;4.80;;;;;;;;;;105607;1295;64775;-25
2021/12/22 04:57:47;;;;;;;8.30;4.70;;;;;;;;;;105619;1294;64842;-26
2021/12/22 05:00:14;;;;;;;7.20;4.70;;;;;;;;;;105583;1295;64849;-25
2021/12/22 05:02:41;;;;;;;6.20;4.30;;;;;;;;;;105624;1294;64752;-26
2021/12/22 05:05:09;;;;;;;7.00;4.60;;;;;;;;;;105445;1294;64774;-26
2021/12/22 05:07:36;;;;;;;6.70;4.30;;;;;;;;;;106823;1295;64741;-25
2021/12/22 05:10:05;;;;;;;7.90;4.50;;;;;;;;;;107173;1296;62512;-25
2021/12/22 05:12:32;;;;;;;7.30;4.80;;;;;;;;;;106338;1292;64886;-23
2021/12/22 05:14:59;;;;;;;7.00;4.70;;;;;;;;;;105631;1294;65470;-24
2021/12/22 05:17:50;;;;;;;7.90;5.20;;;;;;;;;;105571;1294;65948;-25
2021/12/22 05:20:13;;;;;;;6.90;4.30;;;;;;;;;;105723;1291;64890;-25
2021/12/22 05:22:41;;;;;;;6.50;4.60;;;;;;;;;;105681;1294;64871;-25
2021/12/22 05:25:09;;;;;;;7.40;4.30;;;;;;;;;;105653;1291;64806;-25
2021/12/22 05:27:38;;;;;;;7.80;4.30;;;;;;;;;;105947;1294;64837;-23
2021/12/22 05:30:06;;;;;;;7.30;4.30;;;;;;;;;;105671;1290;64752;-23
2021/12/22 05:32:35;;;;;;;6.90;4.20;;;;;;;;;;105758;1291;64912;-24
2021/12/22 05:35:06;;;;;;;6.40;4.60;;;;;;;;;;105683;1294;64746;-24
2021/12/22 05:37:33;;;;;;;7.50;4.60;;;;;;;;;;105679;1294;64775;-25
2021/12/22 05:40:00;;;;;;;6.80;4.60;;;;;;;;;;105473;1292;65278;-25
2021/12/22 05:42:27;;;;;;;7.40;4.50;;;;;;;;;;105636;1294;64868;-24
2021/12/22 05:44:54;;;;;;;6.70;4.40;;;;;;;;;;105483;1295;64750;-24
2021/12/22 05:47:21;;;;;;;6.40;4.30;;;;;;;;;;105696;1290;64830;-24
2021/12/22 05:49:49;;;;;;;6.70;4.20;;;;;;;;;;105644;1294;64894;-24
2021/12/22 05:52:16;;;;;;;7.00;4.70;;;;;;;;;;105494;1292;64808;-25
2021/12/22 05:54:45;;;;;;;7.20;4.70;;;;;;;;;;105673;1291;64744;-25
2021/12/22 05:57:12;;;;;;;7.20;4.80;;;;;;;;;;105653;1292;64836;-24
2021/12/22 05:59:39;;;;;;;6.60;4.40;;;;;;;;;;105580;1289;64848;-25
2021/12/22 06:02:06;;;;;;;7.00;4.00;;;;;;;;;;105605;1298;64809;-25
2021/12/22 06:04:33;;;;;;;6.60;4.30;;;;;;;;;;105581;1292;64893;-25
2021/12/22 06:07:00;;;;;;;7.30;5.10;;;;;;;;;;105579;1292;64799;-25
2021/12/22 06:09:26;;;;;;;7.10;4.90;;;;;;;;;;105652;1295;64779;-25
2021/12/22 06:11:53;;;;;;;6.70;4.40;;;;;;;;;;105617;1295;64831;-24
2021/12/22 06:14:20;;;;;;;7.30;5.50;;;;;;;;;;105585;1292;64797;-24
2021/12/22 06:16:47;;;;;;;6.30;4.40;;;;;;;;;;105483;1293;64849;-25
2021/12/22 06:19:15;;;;;;;7.00;4.60;;;;;;;;;;105475;1297;64914;-26
2021/12/22 06:21:42;;;;;;;7.20;4.80;;;;;;;;;;105530;1292;64877;-25
2021/12/22 06:24:09;;;;;;;6.60;4.60;;;;;;;;;;107467;1295;64795;-25
2021/12/22 06:26:36;;;;;;;7.60;4.90;;;;;;;;;;105628;1291;64767;-26
2021/12/22 06:29:03;;;;;;;6.60;4.70;;;;;;;;;;105588;1295;64848;-25
2021/12/22 06:31:30;;;;;;;7.60;4.60;;;;;;;;;;106673;1292;64856;-26
2021/12/22 06:33:57;;;;;;;6.70;4.50;;;;;;;;;;105604;1292;64785;-26
2021/12/22 06:36:24;;;;;;;6.30;4.60;;;;;;;;;;105588;1294;64887;-26
2021/12/22 06:38:51;;;;;;;6.80;4.50;;;;;;;;;;105628;1292;64761;-27
2021/12/22 06:41:18;;;;;;;7.20;4.50;;;;;;;;;;105646;1295;65315;-41
2021/12/22 06:43:44;;;;;;;8.20;5.60;;;;;;;;;;105632;1294;64746;-26
2021/12/22 06:46:11;;;;;;;6.40;4.60;;;;;;;;;;105623;1295;65076;-25
2021/12/22 06:48:38;;;;;;;7.20;4.70;;;;;;;;;;105604;1292;64836;-25
2021/12/22 06:51:06;;;;;;;7.80;4.70;;;;;;;;;;105488;1288;65404;-26
2021/12/22 06:53:36;;;;;;;7.20;4.60;;;;;;;;;;105593;1295;64814;-26
2021/12/22 06:56:04;;;;;;;6.80;4.70;;;;;;;;;;105652;1293;64889;-26
2021/12/22 06:58:31;;;;;;;8.20;5.10;;;;;;;;;;107576;1291;64860;-24
2021/12/22 07:01:00;;;;;;;7.80;5.10;;;;;;;;;;105541;1295;64769;-26
2021/12/22 07:03:27;;;;;;;6.60;4.80;;;;;;;;;;105615;1295;64709;-26
2021/12/22 07:05:54;;;;;;;7.20;4.70;;;;;;;;;;105606;1292;64985;-25
2021/12/22 07:08:21;;;;;;;6.20;4.60;;;;;;;;;;105619;1295;64831;-25
2021/12/22 07:10:48;;;;;;;7.10;5.20;;;;;;;;;;105600;1291;64745;-26
2021/12/22 07:13:15;;;;;;;7.30;4.60;;;;;;;;;;105611;1295;64949;-26
2021/12/22 07:15:45;;;;;;;7.60;4.70;;;;;;;;;;105594;1295;64714;-26
2021/12/22 07:18:12;;;;;;;7.00;4.90;;;;;;;;;;105405;1298;64852;-25
2021/12/22 07:20:39;;;;;;;7.90;5.40;;;;;;;;;;105435;1294;64789;-25
2021/12/22 07:23:06;;;;;;;7.50;4.90;;;;;;;;;;105905;1295;64728;-26
2021/12/22 07:25:33;;;;;;;7.20;4.90;;;;;;;;;;105579;1295;64817;-25
2021/12/22 07:28:01;;;;;;;7.40;5.00;;;;;;;;;;106698;1296;66267;-24
2021/12/22 07:30:29;;;;;;;7.00;5.00;;;;;;;;;;105742;1295;64942;-26
2021/12/22 07:32:56;;;;;;;8.00;4.90;;;;;;;;;;105633;1296;64864;-28
2021/12/22 07:35:24;;;;;;;7.90;5.40;;;;;;;;;;105609;1296;64773;-26
2021/12/22 07:37:57;;;;;;;7.60;4.80;;;;;;;;;;105569;1293;64835;-26
2021/12/22 07:40:24;;;;;;;8.20;5.00;;;;;;;;;;106632;1296;64856;-26
2021/12/22 07:42:51;;;;;;;7.50;5.00;;;;;;;;;;105595;1292;65604;-31
2021/12/22 07:45:18;;;;;;;8.30;5.10;;;;;;;;;;105940;1295;65024;-27
2021/12/22 07:47:45;;;;;;;8.20;5.20;;;;;;;;;;105203;1295;64871;-27
2021/12/22 07:50:13;;;;;;;7.80;5.40;;;;;;;;;;105424;1295;64935;-26
2021/12/22 07:52:40;;;;;;;8.10;5.30;;;;;;;;;;105638;1292;65599;-25
2021/12/22 07:55:10;;;;;;;8.60;5.40;;;;;;;;;;105639;1295;64840;-27
2021/12/22 07:57:37;;;;;;;7.50;5.30;;;;;;;;;;105723;1295;64679;-26
2021/12/22 08:00:05;;;;;;;8.10;5.40;;;;;;;;;;105633;1296;64818;-26
2021/12/22 08:02:32;;;;;;;8.20;5.20;;;;;;;;;;105641;1294;64773;-26
2021/12/22 08:04:59;;;;;;;8.20;5.50;;;;;;;;;;105758;1295;64816;-24
2021/12/22 08:07:27;;;;;;;8.20;5.60;;;;;;;;;;105649;1295;64812;-25
2021/12/22 08:09:53;;;;;;;8.10;5.10;;;;;;;;;;105642;1283;64851;-25
2021/12/22 08:12:21;;;;;;;8.80;5.40;;;;;;;;;;105626;1295;64873;-25
2021/12/22 08:14:48;;;;;;;9.40;5.70;;;;;;;;;;106367;1294;65969;-25
2021/12/22 08:17:15;;;;;;;8.70;5.60;;;;;;;;;;105660;1296;64751;-25
2021/12/22 08:19:43;;;;;;;8.50;5.30;;;;;;;;;;105485;1293;64879;-25
2021/12/22 08:22:10;;;;;;;8.00;5.50;;;;;;;;;;105467;1293;64848;-29
2021/12/22 08:24:37;;;;;;;7.80;5.50;;;;;;;;;;105640;1289;64821;-26
2021/12/22 08:27:04;;;;;;;8.40;5.70;;;;;;;;;;105403;1294;65442;-26
2021/12/22 08:29:31;;;;;;;9.80;5.50;;;;;;;;;;105427;1296;64821;-26
2021/12/22 08:31:58;;;;;;;9.20;5.80;;;;;;;;;;105434;1296;64973;-25
2021/12/22 08:34:34;;;;;;;7.70;5.40;;;;;;;;;;105591;1295;64752;-26
2021/12/22 08:39:47;;;;;;;10.40;5.80;;;;;;;;;;105462;1295;64965;-25
2021/12/22 08:42:14;;;;;;;9.50;5.70;;;;;;;;;;105204;1296;64869;-26
2021/12/22 08:44:42;;;;;;;9.50;6.10;;;;;;;;;;105649;1292;64840;-26
2021/12/22 08:47:09;;;;;;;8.20;6.00;;;;;;;;;;105638;1296;64826;-25
2021/12/22 08:49:37;;;;;;;9.20;6.10;;;;;;;;;;105479;1297;64773;-26
2021/12/22 08:52:04;;;;;;;9.10;6.20;;;;;;;;;;105669;1293;64843;-26
2021/12/22 08:54:31;;;;;;;9.30;6.10;;;;;;;;;;107150;1293;64871;-25
2021/12/22 08:56:58;;;;;;;7.70;5.70;;;;;;;;;;105652;1293;64794;-26
2021/12/22 08:59:25;;;;;;;10.20;5.80;;;;;;;;;;105466;1297;65024;-26
2021/12/22 09:01:53;;;;;;;10.50;6.40;;;;;;;;;;105487;1292;64733;-26
2021/12/22 09:04:20;;;;;;;7.60;5.70;;;;;;;;;;105612;1293;64833;-26
2021/12/22 09:06:47;;;;;;;8.70;6.10;;;;;;;;;;105632;1295;65008;-25
2021/12/22 09:09:14;;;;;;;8.60;5.80;;;;;;;;;;105655;1292;64871;-24
2021/12/22 09:11:41;;;;;;;8.80;5.90;;;;;;;;;;105704;1294;64895;-25
2021/12/22 09:14:09;;;;;;;9.20;6.10;;;;;;;;;;106927;1294;64917;-25
2021/12/22 09:16:37;;;;;;;9.40;6.20;;;;;;;;;;105627;1293;64703;-25
2021/12/22 09:19:05;;;;;;;10.00;6.20;;;;;;;;;;105190;1296;388027;-25
2021/12/22 09:21:32;;;;;;;9.50;6.00;;;;;;;;;;105691;1297;64802;-25
2021/12/22 09:23:59;;;;;;;8.90;5.40;;;;;;;;;;107882;1290;64846;-26
2021/12/22 09:26:26;;;;;;;8.70;5.60;;;;;;;;;;105636;1293;64811;-25
2021/12/22 09:28:54;;;;;;;9.10;5.80;;;;;;;;;;105466;1297;65469;-26
2021/12/22 09:31:22;;;;;;;9.10;5.90;;;;;;;;;;105659;1293;64771;-25
2021/12/22 09:33:49;;;;;;;10.20;6.10;;;;;;;;;;105623;1293;64866;-25
2021/12/22 09:36:16;;;;;;;10.10;6.30;;;;;;;;;;105581;1295;64976;-25
2021/12/22 09:38:43;;;;;;;8.90;6.00;;;;;;;;;;105621;1294;64860;-24
2021/12/22 09:41:11;;;;;;;10.00;6.50;;;;;;;;;;105670;1296;64754;-25
2021/12/22 09:43:38;;;;;;;9.60;6.20;;;;;;;;;;105411;1293;65707;-29
2021/12/22 09:46:09;;;;;;;9.10;5.70;;;;;;;;;;105626;1295;64739;-26
2021/12/22 09:53:37;;;;;;;10.50;6.30;;;;;;;;;;107474;1294;63051;-25
2021/12/22 09:56:04;;;;;;;10.30;6.20;;;;;;;;;;105647;1296;64830;-26
2021/12/22 09:58:32;;;;;;;9.20;5.80;;;;;;;;;;105608;1294;64859;-25
2021/12/22 10:00:59;;;;;;;9.90;6.70;;;;;;;;;;105934;1287;64900;-26
2021/12/22 10:03:26;;;;;;;9.30;6.10;;;;;;;;;;106877;1296;65344;-23
2021/12/22 10:05:53;;;;;;;9.60;6.00;;;;;;;;;;105512;1282;64895;-24
2021/12/22 10:08:25;;;;;;;10.70;5.90;;;;;;;;;;107009;1293;62778;-25
2021/12/22 10:10:52;;;;;;;9.40;6.20;;;;;;;;;;105630;1292;64863;-24
2021/12/22 10:13:25;;;;;;;10.20;6.20;;;;;;;;;;105649;1294;64876;-24
2021/12/22 10:15:52;;;;;;;8.80;6.50;;;;;;;;;;105531;1293;64927;-23
2021/12/22 10:18:20;;;;;;;10.30;6.80;;;;;;;;;;106020;1295;64860;-28
2021/12/22 10:20:48;;;;;;;9.20;6.30;;;;;;;;;;106067;1296;64744;-22
2021/12/22 10:23:26;;;;;;;9.30;6.70;;;;;;;;;;105656;1294;64891;-24
2021/12/22 10:25:58;;;;;;;10.30;6.40;;;;;;;;;;105748;1293;64807;-23
2021/12/22 10:28:25;;;;;;;9.20;6.20;;;;;;;;;;105661;1291;64878;-23
2021/12/22 10:30:58;;;;;;;9.20;6.30;;;;;;;;;;105677;1294;64745;-23
2021/12/22 10:33:27;;;;;;;9.30;6.40;;;;;;;;;;105628;1295;64780;-39
2021/12/22 10:35:55;;;;;;;11.20;6.70;;;;;;;;;;106293;1295;64748;-27
2021/12/22 10:38:24;;;;;;;10.60;6.20;;;;;;;;;;105715;1292;64940;-27
2021/12/22 10:40:58;;;;;;;8.60;6.30;;;;;;;;;;105791;1291;64756;-24
2021/12/22 10:43:26;;;;;;;9.80;6.40;;;;;;;;;;105621;1290;65000;-24
2021/12/22 10:45:56;;;;;;;11.80;6.60;;;;;;;;;;105600;1291;64882;-25
2021/12/22 10:51:10;;;;;;;9.10;6.10;;;;;;;;;;105583;1292;64736;-27
2021/12/22 10:53:44;;;;;;;9.60;6.20;;;;;;;;;;107002;1296;63664;-25
2021/12/22 10:56:20;;;;;;;8.90;6.50;;;;;;;;;;105864;1293;64835;-28
2021/12/22 10:58:58;;;;;;;10.70;6.30;;;;;;;;;;105641;1293;64926;-28
2021/12/22 11:01:27;;;;;;;9.90;6.20;;;;;;;;;;105741;1293;64855;-25
2021/12/22 11:04:02;;;;;;;9.20;6.10;;;;;;;;;;105497;1293;64866;-29
2021/12/22 11:06:30;;;;;;;9.00;6.70;;;;;;;;;;105599;1293;65187;-28
2021/12/22 11:09:10;;;;;;;9.70;6.10;;;;;;;;;;105386;1296;64844;-27
2021/12/22 11:11:39;;;;;;;9.50;6.20;;;;;;;;;;105646;1292;64898;-26
2021/12/22 11:14:08;;;;;;;9.60;6.60;;;;;;;;;;105693;1295;64739;-27
2021/12/22 11:16:53;;;;;;;10.50;6.30;;;;;;;;;;105685;1293;64856;-28
2021/12/22 11:19:21;;;;;;;8.50;5.70;;;;;;;;;;105719;1294;64870;-28
2021/12/22 11:22:00;;;;;;;9.20;6.30;;;;;;;;;;105725;1291;64821;-28
2021/12/22 11:24:28;;;;;;;9.70;6.80;;;;;;;;;;105678;1294;65754;-27
2021/12/22 11:26:55;;;;;;;8.90;6.90;;;;;;;;;;105632;1294;64746;-26
2021/12/22 11:29:23;;;;;;;10.80;6.50;;;;;;;;;;105692;1293;64889;-25
2021/12/22 11:31:51;;;;;;;10.80;6.90;;;;;;;;;;105647;1292;64783;-24
2021/12/22 11:34:18;;;;;;;10.80;6.80;;;;;;;;;;105674;1292;65183;-25
2021/12/22 11:36:45;;;;;;;9.80;6.90;;;;;;;;;;105638;1284;64938;-26
2021/12/22 11:39:13;;;;;;;10.00;6.80;;;;;;;;;;105685;1293;64805;-25
2021/12/22 11:41:54;;;;;;;10.60;6.80;;;;;;;;;;105679;1294;64805;-27
2021/12/22 11:44:27;;;;;;;11.10;6.80;;;;;;;;;;105684;1287;64831;-27
2021/12/22 11:46:56;;;;;;;11.20;7.50;;;;;;;;;;105715;1292;65300;-26
2021/12/22 11:49:24;;;;;;;10.00;6.90;;;;;;;;;;105672;1292;64927;-27
2021/12/22 11:51:51;;;;;;;9.70;6.10;;;;;;;;;;105602;1293;64826;-27
2021/12/22 11:54:25;;;;;;;9.30;6.00;;;;;;;;;;105535;1292;64886;-27
2021/12/22 11:56:53;;;;;;;11.80;7.00;;;;;;;;;;105685;1294;64849;-25
2021/12/22 11:59:28;;;;;;;10.00;6.80;;;;;;;;;;105721;1292;64862;-34
2021/12/22 12:02:32;;;;;;;10.40;6.90;;;;;;;;;;105669;1293;64855;-34
2021/12/22 12:05:17;;;;;;;9.50;6.50;;;;;;;;;;104830;1296;64854;-26
2021/12/22 12:07:47;;;;;;;9.40;6.50;;;;;;;;;;105153;1296;64894;-25
2021/12/22 12:10:56;;;;;;;10.90;6.90;;;;;;;;;;105527;1287;64917;-25
2021/12/22 12:14:21;;;;;;;10.80;6.80;;;;;;;;;;104749;1301;64822;-26
2021/12/22 12:21:52;;;;;;;10.60;7.10;;;;;;;;;;105281;1293;64822;-32
2021/12/22 12:24:38;;;;;;;9.80;6.80;;;;;;;;;;105303;1293;64764;-26
2021/12/22 12:27:25;;;;;;;10.50;7.20;;;;;;;;;;105138;1290;64998;-27
2021/12/22 12:29:57;;;;;;;10.40;7.40;;;;;;;;;;105442;1284;64885;-27
2021/12/22 12:32:41;;;;;;;11.30;7.70;;;;;;;;;;105282;1293;64880;-26
2021/12/22 12:35:18;;;;;;;10.80;7.20;;;;;;;;;;105335;1287;64861;-26
2021/12/22 12:38:04;;;;;;;11.20;7.10;;;;;;;;;;105521;1294;64853;-30
2021/12/22 12:40:50;;;;;;;10.10;7.20;;;;;;;;;;105317;1296;64863;-27
2021/12/22 12:43:18;;;;;;;11.70;7.60;;;;;;;;;;105343;1293;64831;-27
2021/12/22 12:45:47;;;;;;;11.00;7.00;;;;;;;;;;105055;1297;64773;-27
2021/12/22 12:48:25;;;;;;;10.10;7.40;;;;;;;;;;105235;1296;64904;-29
2021/12/22 12:51:21;;;;;;;11.30;7.50;;;;;;;;;;105252;1296;64867;-27
2021/12/22 12:53:51;;;;;;;10.40;7.00;;;;;;;;;;105572;1292;64858;-26
2021/12/22 12:56:21;;;;;;;11.20;7.80;;;;;;;;;;105263;1293;64875;-25
2021/12/22 12:58:55;;;;;;;9.70;7.20;;;;;;;;;;105329;1296;64848;-25
2021/12/22 13:01:41;;;;;;;10.30;7.50;;;;;;;;;;105310;1295;64872;-25
2021/12/22 13:04:27;;;;;;;9.50;6.90;;;;;;;;;;105304;1296;65170;-27
2021/12/22 13:07:01;;;;;;;11.50;7.40;;;;;;;;;;105266;1293;64893;-26
2021/12/22 13:09:30;;;;;;;9.50;7.20;;;;;;;;;;105209;1296;64713;-25
2021/12/22 13:12:10;;;;;;;12.10;8.10;;;;;;;;;;105260;1293;64852;-26
2021/12/22 13:20:19;;;;;;;11.00;7.70;;;;;;;;;;105037;1299;64977;-24
2021/12/22 13:22:49;;;;;;;11.30;8.30;;;;;;;;;;104999;1299;64815;-25
2021/12/22 13:25:18;;;;;;;12.00;8.20;;;;;;;;;;105023;1298;65075;-28
2021/12/22 13:27:50;;;;;;;11.70;8.40;;;;;;;;;;104863;1300;64882;-25
2021/12/22 13:30:20;;;;;;;11.10;7.70;;;;;;;;;;105037;1299;64870;-27
2021/12/22 13:35:45;;;;;;;10.80;7.80;;;;;;;;;;106674;1277;64878;-28
2021/12/22 13:38:23;;;;;;;12.50;8.00;;;;;;;;;;105469;1295;64884;-28
2021/12/22 13:40:50;;;;;;;10.90;8.40;;;;;;;;;;105597;1291;64865;-28
2021/12/22 13:43:26;;;;;;;13.20;8.60;;;;;;;;;;105754;1290;64755;-31
2021/12/22 13:45:54;;;;;;;12.10;8.30;;;;;;;;;;105635;1296;65014;-24
2021/12/22 13:48:23;;;;;;;11.90;8.10;;;;;;;;;;105635;1297;64785;-23
2021/12/22 13:50:50;;;;;;;11.90;8.70;;;;;;;;;;105370;1296;64869;-24
2021/12/22 13:53:20;;;;;;;11.70;8.70;;;;;;;;;;106015;1280;64923;-29
2021/12/22 13:55:49;;;;;;;15.00;9.80;;;;;;;;;;105807;1293;64910;-27
2021/12/22 13:58:32;;;;;;;16.30;11.20;;;;;;;;;;105787;1294;64818;-27
2021/12/22 14:01:09;;;;;;;15.40;11.70;;;;;;;;;;105620;1293;64850;-29
2021/12/22 14:03:37;;;;;;;14.60;11.10;;;;;;;;;;105651;1293;64792;-25
2021/12/22 14:06:09;;;;;;;15.60;11.50;;;;;;;;;;105390;1297;65527;-32
2021/12/22 14:08:37;;;;;;;15.70;11.70;;;;;;;;;;105609;1296;64811;-26
2021/12/22 14:11:24;;;;;;;14.40;11.30;;;;;;;;;;105555;1293;64883;-27
2021/12/22 14:13:51;;;;;;;13.40;10.90;;;;;;;;;;105678;1296;64808;-27
2021/12/22 14:16:25;;;;;;;12.90;10.80;;;;;;;;;;105721;1295;64882;-27
2021/12/22 14:18:52;;;;;;;14.00;11.20;;;;;;;;;;105660;1293;64779;-25
2021/12/22 14:21:20;;;;;;;14.90;11.80;;;;;;;;;;105684;1293;64847;-26
2021/12/22 14:23:55;;;;;;;16.20;12.00;;;;;;;;;;105680;1284;64875;-31
2021/12/22 14:26:22;;;;;;;15.50;11.50;;;;;;;;;;105690;1284;64921;-27
2021/12/22 14:29:06;;;;;;;15.10;11.60;;;;;;;;;;105739;1295;64743;-26
2021/12/22 14:31:38;;;;;;;;;;;;;;;;;;105659;1293;64881;-30
2021/12/22 14:34:06;;;;;;;16.90;11.30;;;;;;;;;;105707;1293;65926;-36
2021/12/22 14:36:42;;;;;;;15.40;9.90;;;;;;;;;;105837;1294;64980;-28
2021/12/22 14:39:10;;;;;;;13.90;10.40;;;;;;;;;;105616;1296;65904;-29
2021/12/22 14:41:37;;;;;;;15.00;10.30;;;;;;;;;;105804;1291;64926;-29
2021/12/22 14:44:16;;;;;;;14.30;10.10;;;;;;;;;;105719;1291;64783;-36
2021/12/22 14:46:43;;;;;;;14.40;10.10;;;;;;;;;;105728;1294;64846;-28
2021/12/22 14:49:15;;;;;;;13.90;10.20;;;;;;;;;;105666;1294;64823;-29
2021/12/22 14:51:42;;;;;;;12.50;9.20;;;;;;;;;;105670;1295;64858;-27
2021/12/22 14:54:11;;;;;;;14.40;9.90;;;;;;;;;;105743;1291;64874;-27
2021/12/22 14:56:41;;;;;;;13.40;9.30;;;;;;;;;;105707;1294;64780;-28
2021/12/22 14:59:08;;;;;;;13.80;9.50;;;;;;;;;;105505;1293;64747;-27
2021/12/22 15:01:36;;;;;;;14.50;9.20;;;;;;;;;;107398;1293;62740;-27
2021/12/22 15:04:03;;;;;;;15.10;9.60;;;;;;;;;;107468;1295;63105;-28
2021/12/22 15:06:30;;;;;;;12.90;9.10;;;;;;;;;;107768;1291;62836;-38
2021/12/22 15:08:58;;;;;;;13.90;9.40;;;;;;;;;;106447;1292;64894;-28
2021/12/22 15:11:25;;;;;;;13.60;9.40;;;;;;;;;;105585;1292;64815;-28
2021/12/22 15:13:52;;;;;;;14.00;9.10;;;;;;;;;;105590;1295;65870;-27
2021/12/22 15:16:21;;;;;;;12.90;9.00;;;;;;;;;;105582;1295;64743;-29